Glenwood Springs, CO (81602)

3:04 AM MDT en Octubre 31, 2014 (GMT -0600)
South Glenwood Springs | Change Station
CLOSE
Current Station
Estación meteorológica personal
Location: Glenwood Springs, CO
Altura: 5910 ft
Estaciones meteorológicas cercanas

Alt 5910 ft 39.51 °N, 107.31 °W | Updated 3 minutes ago

Despejado
Despejado
32.6 ° F
Sensación térmica 33 ° F
N
0.0
Viento Variable Viento desde ESE
Gusts 3.0 mph

Hoy
Alta -- | Baja -- ° F
--% Posibilidad de precipitaciones
Ayer
Alta -- | Baja -- ° F
Precip. -- pul
7:36 AM 6:08 PM
Cuarto creciente, 53% visible
Presión 30.17 pul
Visibilidad 10.0 Millas
Nubes Despejado
Vientos helados 33 ° F
Punto de rocío 23 ° F
Humedad 67%
Precipitaciones -999.00 pul
Espesor de la nieve No disponible.
UV 0.0 de una escala de 12
Polen .70 de una escala de 12
Calidad del aire No disponible.
Flu Activity No disponible.
METAR KRIL 310853Z AUTO 00000KT 10SM CLR 02/M04 A3026 RMK AO2 SLP217 T00171039 56005

More Conditions Fewer Conditions

Presión 30.17 pul
Visibilidad 10.0 Millas
Nubes Despejado
Vientos helados 33 ° F
Punto de rocío 23 ° F
Humedad 67%
Precipitaciones -999.00 pul
Espesor de la nieve No disponible.
UV 0.0 de una escala de 12
Polen .70 de una escala de 12
Calidad del aire No disponible.
Flu Activity No disponible.
METAR KRIL 310853Z AUTO 00000KT 10SM CLR 02/M04 A3026 RMK AO2 SLP217 T00171039 56005

More Conditions Fewer Conditions

10-Day Weather Forecast

Almanac

Astronomía

Oct. 31, 2014 Salida Puesta
Hora real
Crepúsculo civil
Crepúsculo náutico
Crepúsculo astronómico
Luna
Horas de luz
Horas de luz
Tomorrow will be .
, % of the Moon is Illuminated

Extremos de hoy

Máximos del estado Bajos del estado

Community

WunderPhotos

Upload Photos

1,766,573 ¡fotos cargadas!

WunderBlogs® & News

Nearby

Calidad del aire

  Calidad del aire Índice AQ Contaminante
Not available.

Grosos de nieve

Estación Profundido Altura

Actividad de terremotos

Ciudad Distance Mag. Tiempo y dato
Magnitud mínima muestra es 2,5.

Temperaturas de aguas costeras

Lugar Temperatura

Estaciones meteorológicas cercanas